Time;durP1;ratioP1;P1;durP2;ratioP2;P2;SDS_P1;SDS_P2;PMS_P1;PMS_P2;Temp;Humidity;BMP_temperature;BMP_pressure;BME280_temperature;BME280_humidity;BME280_pressure;Samples;Min_cycle;Max_cycle;Signal;HPM_P1;HPM_P2
2023/12/09 00:01:56;;;;;;;11.57;5.40;;;;;;;;;;5074087;28;20378;-81
2023/12/09 00:04:23;;;;;;;13.45;5.78;;;;;;;;;;5091833;28;20029;-80
2023/12/09 00:06:49;;;;;;;14.15;6.10;;;;;;;;;;5074539;28;20028;-80
2023/12/09 00:09:17;;;;;;;9.82;4.90;;;;;;;;;;5087440;28;20393;-80
2023/12/09 00:11:43;;;;;;;8.95;4.78;;;;;;;;;;5087978;28;20024;-81
2023/12/09 00:14:09;;;;;;;11.55;5.38;;;;;;;;;;5088904;28;20093;-80
2023/12/09 00:16:35;;;;;;;11.38;5.18;;;;;;;;;;5074761;28;20052;-80
2023/12/09 00:19:02;;;;;;;10.35;4.35;;;5.40;99.90;;;;;;5087964;28;20034;-80
2023/12/09 00:21:28;;;;;;;11.15;4.75;;;;;;;;;;5087246;28;20020;-80
2023/12/09 00:23:54;;;;;;;11.85;5.55;;;;;;;;;;5091056;28;20043;-80
2023/12/09 00:26:20;;;;;;;9.07;4.70;;;;;;;;;;5073770;28;20027;-80
2023/12/09 00:28:46;;;;;;;12.90;4.88;;;;;;;;;;5085127;28;20081;-81
2023/12/09 00:31:12;;;;;;;8.57;4.30;;;;;;;;;;5089833;28;20806;-80
2023/12/09 00:33:38;;;;;;;11.70;4.22;;;;;;;;;;5086868;28;20158;-81
2023/12/09 00:36:04;;;;;;;11.13;5.30;;;;;;;;;;5071245;28;20023;-80
2023/12/09 00:38:31;;;;;;;9.50;4.68;;;;;;;;;;5088793;28;20105;-80
2023/12/09 00:40:56;;;;;;;13.02;5.38;;;;;;;;;;5072794;28;20512;-80
2023/12/09 00:43:22;;;;;;;9.85;4.93;;;;;;;;;;5090937;28;20105;-81
2023/12/09 00:45:48;;;;;;;15.15;6.00;;;;;;;;;;5067543;28;20108;-80
2023/12/09 00:48:14;;;;;;;10.75;4.97;;;;;;;;;;5074128;28;20074;-81
2023/12/09 00:50:41;;;;;;;8.35;4.47;;;;;;;;;;5086599;28;20024;-80
2023/12/09 00:53:07;;;;;;;7.18;4.40;;;;;;;;;;5089325;28;20039;-80
2023/12/09 00:55:33;;;;;;;7.65;4.38;;;;;;;;;;5087809;28;20024;-80
2023/12/09 00:57:59;;;;;;;9.95;4.45;;;;;;;;;;5088718;28;20119;-80
2023/12/09 01:00:25;;;;;;;15.70;5.93;;;;;;;;;;5094012;28;20106;-80
2023/12/09 01:02:51;;;;;;;11.30;4.93;;;;;;;;;;5073134;28;20024;-80
2023/12/09 01:05:17;;;;;;;11.15;4.45;;;;;;;;;;5068766;28;20039;-80
2023/12/09 01:07:43;;;;;;;10.82;5.03;;;;;;;;;;5086021;28;20038;-80
2023/12/09 01:10:10;;;;;;;11.77;4.57;;;;;;;;;;5085825;28;20027;-79
2023/12/09 01:12:36;;;;;;;12.05;5.90;;;;;;;;;;5086265;28;20453;-78
2023/12/09 01:15:02;;;;;;;14.00;5.97;;;;;;;;;;5071097;28;20052;-80
2023/12/09 01:17:28;;;;;;;9.25;3.92;;;;;;;;;;5068742;28;20067;-80
2023/12/09 01:19:54;;;;;;;14.93;5.30;;;;;;;;;;5083978;28;20028;-80
2023/12/09 01:22:20;;;;;;;11.00;4.95;;;;;;;;;;5088085;28;20032;-80
2023/12/09 01:24:47;;;;;;;8.45;5.00;;;4.80;99.90;;;;;;5092897;28;20024;-81
2023/12/09 01:27:13;;;;;;;8.38;4.75;;;;;;;;;;5090043;28;20039;-80
2023/12/09 01:29:40;;;;;;;10.65;5.72;;;;;;;;;;5071594;28;20024;-80
2023/12/09 01:32:06;;;;;;;10.40;3.95;;;;;;;;;;5056094;28;20036;-81
2023/12/09 01:34:32;;;;;;;9.10;4.60;;;;;;;;;;5071238;28;20430;-80
2023/12/09 01:36:58;;;;;;;7.40;3.40;;;;;;;;;;5088657;28;20031;-80
2023/12/09 01:39:24;;;;;;;10.55;5.05;;;;;;;;;;5092665;28;20032;-80
2023/12/09 01:41:50;;;;;;;10.32;4.88;;;;;;;;;;5085167;28;20118;-80
2023/12/09 01:44:17;;;;;;;8.68;4.15;;;;;;;;;;5071458;28;20525;-80
2023/12/09 01:46:43;;;;;;;9.30;4.30;;;;;;;;;;5078986;28;20024;-80
2023/12/09 01:49:10;;;;;;;10.27;3.75;;;;;;;;;;5092770;28;20051;-80
2023/12/09 01:51:38;;;;;;;8.93;4.15;;;;;;;;;;5086563;28;20024;-80
2023/12/09 01:54:04;;;;;;;13.85;4.25;;;;;;;;;;5080691;28;20057;-78
2023/12/09 01:56:30;;;;;;;7.55;3.63;;;;;;;;;;5087859;28;20044;-79
2023/12/09 01:58:57;;;;;;;13.13;4.75;;;;;;;;;;5088036;28;20024;-80
2023/12/09 02:01:24;;;;;;;9.15;3.55;;;;;;;;;;5070797;28;20073;-80
2023/12/09 02:03:50;;;;;;;11.63;4.55;;;;;;;;;;5083393;28;20439;-81
2023/12/09 02:06:16;;;;;;;8.38;4.13;;;;;;;;;;5082611;28;20024;-81
2023/12/09 02:08:43;;;;;;;19.55;4.22;;;;;;;;;;5072523;28;20028;-80
2023/12/09 02:11:29;;;;;;;9.25;4.13;;;;;;;;;;5084235;28;20036;-80
2023/12/09 02:14:03;;;;;;;9.27;3.63;;;;;;;;;;5055821;28;20029;-81
2023/12/09 02:16:46;;;;;;;7.78;4.28;;;4.60;99.90;;;;;;5084069;28;20024;-80
2023/12/09 02:19:13;;;;;;;8.32;4.38;;;;;;;;;;5084170;28;20513;-79
2023/12/09 02:22:00;;;;;;;6.70;3.22;;;;;;;;;;5084939;28;20077;-79
2023/12/09 02:24:26;;;;;;;10.73;4.75;;;;;;;;;;5083130;28;20090;-80
2023/12/09 02:26:53;;;;;;;7.93;4.22;;;;;;;;;;5084786;28;20087;-79
2023/12/09 02:29:20;;;;;;;9.20;4.00;;;;;;;;;;5086755;28;20020;-80
2023/12/09 02:31:48;;;;;;;13.18;4.85;;;;;;;;;;5084681;28;20032;-79
2023/12/09 02:34:15;;;;;;;9.63;3.58;;;;;;;;;;5085437;28;20035;-79
2023/12/09 02:36:43;;;;;;;6.85;3.63;;;;;;;;;;5083699;28;20382;-80
2023/12/09 02:39:10;;;;;;;9.40;4.13;;;;;;;;;;5085252;28;20023;-79
2023/12/09 02:41:36;;;;;;;10.73;3.60;;;;;;;;;;5080948;28;20043;-79
2023/12/09 02:44:04;;;;;;;7.68;3.92;;;;;;;;;;5070306;28;20034;-79
2023/12/09 02:46:30;;;;;;;7.28;4.15;;;;;;;;;;5082947;28;20506;-79
2023/12/09 02:48:59;;;;;;;9.20;4.45;;;;;;;;;;5062735;28;20024;-80
2023/12/09 02:51:25;;;;;;;7.90;4.07;;;;;;;;;;5086221;28;20051;-78
2023/12/09 02:53:51;;;;;;;10.48;3.83;;;;;;;;;;5085708;28;20510;-79
2023/12/09 02:56:17;;;;;;;11.45;4.55;;;;;;;;;;5068975;28;20028;-80
2023/12/09 02:58:43;;;;;;;12.30;4.20;;;;;;;;;;5081509;28;20040;-80
2023/12/09 03:01:09;;;;;;;7.95;3.92;;;;;;;;;;5085880;28;20020;-79
2023/12/09 03:03:35;;;;;;;9.10;3.15;;;;;;;;;;5081360;28;20032;-80
2023/12/09 03:06:01;;;;;;;8.95;3.78;;;;;;;;;;5083823;28;20085;-80
2023/12/09 03:08:27;;;;;;;6.40;2.88;;;;;;;;;;5086972;28;20036;-80
2023/12/09 03:10:53;;;;;;;5.55;3.72;;;;;;;;;;5082164;28;20035;-79
2023/12/09 03:13:19;;;;;;;12.27;4.25;;;;;;;;;;5065594;28;20032;-80
2023/12/09 03:15:45;;;;;;;8.05;3.13;;;;;;;;;;5082136;28;20032;-80
2023/12/09 03:18:11;;;;;;;12.77;3.97;;;;;;;;;;5081295;28;20111;-79
2023/12/09 03:20:37;;;;;;;11.05;4.15;;;;;;;;;;5086571;28;20372;-80
2023/12/09 03:23:03;;;;;;;8.20;4.05;;;;;;;;;;5088776;28;20390;-80
2023/12/09 03:25:29;;;;;;;9.98;4.75;;;;;;;;;;5091503;28;20040;-80
2023/12/09 03:27:55;;;;;;;13.70;4.72;;;;;;;;;;5089453;28;20111;-80
2023/12/09 03:30:21;;;;;;;12.77;4.80;;;;;;;;;;5054162;28;20039;-80
2023/12/09 03:32:47;;;;;;;9.10;3.63;;;;;;;;;;5087204;28;20036;-81
2023/12/09 03:35:14;;;;;;;11.23;5.47;;;;;;;;;;5084262;28;20027;-81
2023/12/09 03:37:40;;;;;;;18.08;5.93;;;;;;;;;;5073795;28;20115;-80
2023/12/09 03:40:10;;;;;;;12.88;4.57;;;;;;;;;;5089054;28;20115;-80
2023/12/09 03:42:36;;;;;;;9.00;4.10;;;;;;;;;;5070221;28;20401;-81
2023/12/09 03:45:01;;;;;;;8.10;3.95;;;;;;;;;;5070502;28;20115;-79
2023/12/09 03:47:27;;;;;;;7.93;3.95;;;;;;;;;;5086057;28;20488;-80
2023/12/09 03:49:53;;;;;;;10.20;3.83;;;;;;;;;;5081760;28;20028;-80
2023/12/09 03:52:19;;;;;;;8.82;4.00;;;;;;;;;;5084244;28;20027;-80
2023/12/09 03:54:45;;;;;;;6.13;3.22;;;;;;;;;;5069059;28;20482;-78
2023/12/09 03:57:13;;;;;;;11.13;4.07;;;;;;;;;;5070848;28;20027;-80
2023/12/09 03:59:40;;;;;;;12.75;4.93;;;;;;;;;;5088733;28;20032;-79
2023/12/09 04:02:06;;;;;;;9.88;3.38;;;;;;;;;;5088222;28;20175;-80
2023/12/09 04:04:32;;;;;;;11.32;4.70;;;;;;;;;;5089621;28;20067;-78
2023/12/09 04:06:58;;;;;;;20.98;5.50;;;;;;;;;;5078762;28;20051;-79
2023/12/09 04:09:24;;;;;;;12.02;5.05;;;;;;;;;;5088457;28;20035;-79
2023/12/09 04:11:50;;;;;;;13.63;5.57;;;;;;;;;;5092079;28;20579;-79
2023/12/09 04:14:16;;;;;;;6.60;3.15;;;;;;;;;;5089252;28;20021;-79
2023/12/09 04:16:43;;;;;;;10.50;4.40;;;;;;;;;;5085700;28;20027;-79
2023/12/09 04:19:09;;;;;;;9.88;4.25;;;;;;;;;;5070568;28;20525;-79
2023/12/09 04:21:35;;;;;;;9.77;3.95;;;;;;;;;;5086520;28;20114;-78
2023/12/09 04:24:01;;;;;;;8.32;4.07;;;;;;;;;;5087157;28;20401;-80
2023/12/09 04:26:27;;;;;;;11.55;4.60;;;;;;;;;;5071995;28;20024;-79
2023/12/09 04:28:53;;;;;;;14.20;6.20;;;;;;;;;;5088987;28;20036;-78
2023/12/09 04:31:19;;;;;;;22.92;6.05;;;;;;;;;;5085667;28;20020;-79
2023/12/09 04:33:45;;;;;;;10.27;4.55;;;;;;;;;;5090567;28;20489;-79
2023/12/09 04:36:11;;;;;;;12.55;5.32;;;;;;;;;;5084006;28;20443;-79
2023/12/09 04:38:37;;;;;;;15.93;5.22;;;;;;;;;;5089195;28;20035;-79
2023/12/09 04:41:04;;;;;;;8.32;4.38;;;;;;;;;;5089257;28;20039;-78
2023/12/09 04:43:30;;;;;;;9.23;4.55;;;;;;;;;;5087503;28;20078;-79
2023/12/09 04:45:56;;;;;;;10.45;5.00;;;;;;;;;;5088992;28;20436;-80
2023/12/09 04:48:22;;;;;;;10.57;4.22;;;;;;;;;;5087406;28;20028;-79
2023/12/09 04:50:48;;;;;;;13.82;5.20;;;;;;;;;;5072141;28;20103;-80
2023/12/09 04:53:14;;;;;;;8.55;3.78;;;;;;;;;;5072238;28;20032;-80
2023/12/09 04:55:41;;;;;;;11.02;4.85;;;;;;;;;;5085559;28;20046;-78
2023/12/09 04:58:07;;;;;;;9.27;4.68;;;;;;;;;;5090052;28;20040;-80
2023/12/09 05:00:33;;;;;;;6.63;4.53;;;;;;;;;;5083924;28;20028;-79
2023/12/09 05:02:59;;;;;;;8.43;3.92;;;;;;;;;;5090186;28;20032;-79
2023/12/09 05:05:25;;;;;;;8.30;3.85;;;;;;;;;;5069222;28;20138;-80
2023/12/09 05:07:51;;;;;;;12.15;4.22;;;;;;;;;;5094518;28;20394;-79
2023/12/09 05:10:18;;;;;;;11.15;4.93;;;;;;;;;;5090093;28;20101;-80
2023/12/09 05:12:44;;;;;;;9.15;4.63;;;;;;;;;;5066903;28;20068;-79
2023/12/09 05:15:10;;;;;;;10.82;4.68;;;;;;;;;;5068713;28;20024;-79
2023/12/09 05:17:36;;;;;;;10.82;4.70;;;;;;;;;;5070789;28;20042;-79
2023/12/09 05:20:04;;;;;;;16.27;4.70;;;;;;;;;;5071876;28;20028;-79
2023/12/09 05:22:30;;;;;;;11.88;6.05;;;;;;;;;;5083706;28;20743;-79
2023/12/09 05:24:56;;;;;;;14.43;5.78;;;;;;;;;;5075226;28;20032;-79
2023/12/09 05:27:22;;;;;;;9.95;5.18;;;;;;;;;;5089550;28;20058;-79
2023/12/09 05:29:48;;;;;;;14.65;4.72;;;;;;;;;;5089045;28;20024;-79
2023/12/09 05:32:14;;;;;;;12.60;4.60;;;;;;;;;;5079315;28;20028;-79
2023/12/09 05:34:40;;;;;;;14.05;5.53;;;;;;;;;;5072781;28;20078;-79
2023/12/09 05:37:06;;;;;;;11.93;5.18;;;;;;;;;;5093035;28;20020;-79
2023/12/09 05:39:32;;;;;;;11.10;4.05;;;;;;;;;;5088471;28;20112;-80
2023/12/09 05:41:59;;;;;;;9.55;4.93;;;;;;;;;;5073226;28;20031;-79
2023/12/09 05:44:25;;;;;;;14.63;5.50;;;;;;;;;;5087620;28;20052;-80
2023/12/09 05:46:51;;;;;;;8.95;4.63;;;;;;;;;;5091682;28;20063;-80
2023/12/09 05:49:17;;;;;;;13.60;5.13;;;;;;;;;;5085571;28;20028;-79
2023/12/09 05:51:43;;;;;;;13.50;4.72;;;;;;;;;;5087606;28;20398;-80
2023/12/09 05:54:09;;;;;;;10.15;4.88;;;;;;;;;;5089241;28;20020;-79
2023/12/09 05:56:35;;;;;;;11.65;4.88;;;;;;;;;;5076226;28;20035;-79
2023/12/09 05:59:01;;;;;;;8.85;3.60;;;;;;;;;;5087123;28;20032;-79
2023/12/09 06:01:27;;;;;;;10.88;5.10;;;;;;;;;;5058234;28;20040;-79
2023/12/09 06:03:53;;;;;;;12.32;4.13;;;;;;;;;;5089374;28;20496;-79
2023/12/09 06:06:19;;;;;;;14.05;5.65;;;;;;;;;;5079749;28;20122;-79
2023/12/09 06:08:45;;;;;;;12.65;5.15;;;;;;;;;;5067887;28;20040;-80
2023/12/09 06:11:11;;;;;;;11.98;5.05;;;;;;;;;;5083309;28;20032;-79
2023/12/09 06:13:37;;;;;;;13.43;4.95;;;;;;;;;;5080514;28;20011;-78
2023/12/09 06:16:03;;;;;;;14.65;5.85;;;;;;;;;;5107240;28;20508;-80
2023/12/09 06:18:29;;;;;;;18.73;5.80;;;;;;;;;;5071411;28;20028;-79
2023/12/09 06:20:55;;;;;;;16.00;5.93;;;;;;;;;;5085580;28;20408;-78
2023/12/09 06:23:21;;;;;;;12.20;4.93;;;;;;;;;;5072266;28;20024;-79
2023/12/09 06:25:48;;;;;;;11.98;5.45;;;;;;;;;;5084221;28;20047;-80
2023/12/09 06:28:14;;;;;;;11.60;5.20;;;;;;;;;;5086217;28;20579;-79
2023/12/09 06:30:40;;;;;;;9.00;4.57;;;;;;;;;;5065464;28;20108;-80
2023/12/09 06:33:05;;;;;;;11.40;5.43;;;;;;;;;;5059844;28;20024;-79
2023/12/09 06:35:31;;;;;;;9.38;5.00;;;;;;;;;;5087074;28;20017;-80
2023/12/09 06:37:57;;;;;;;19.23;6.15;;;;;;;;;;5070476;28;21711;-80
2023/12/09 06:40:23;;;;;;;16.45;5.35;;;;;;;;;;5070004;28;20089;-79
2023/12/09 06:42:49;;;;;;;11.75;4.93;;;;;;;;;;5068014;28;20032;-79
2023/12/09 06:45:16;;;;;;;14.55;5.75;;;;;;;;;;5085937;28;20085;-79
2023/12/09 06:47:42;;;;;;;16.42;6.97;;;;;;;;;;5084880;28;20423;-80
2023/12/09 06:50:08;;;;;;;15.02;6.68;;;;;;;;;;5059102;28;20047;-79
2023/12/09 06:52:34;;;;;;;21.05;5.30;;;;;;;;;;5087740;28;20066;-80
2023/12/09 06:55:00;;;;;;;14.60;6.05;;;;;;;;;;5084631;28;20043;-79
2023/12/09 06:57:27;;;;;;;12.07;6.03;;;;;;;;;;5068200;28;20453;-80
2023/12/09 06:59:53;;;;;;;12.75;5.32;;;;;;;;;;5082228;28;20023;-79
2023/12/09 07:02:19;;;;;;;11.43;5.40;;;;;;;;;;5094294;28;20386;-79
2023/12/09 07:04:45;;;;;;;13.18;6.20;;;;;;;;;;5087609;28;20282;-79
2023/12/09 07:07:11;;;;;;;11.52;5.82;;;;;;;;;;5068885;28;20036;-79
2023/12/09 07:09:37;;;;;;;13.57;6.18;;;;;;;;;;5093782;28;20032;-79
2023/12/09 07:12:03;;;;;;;14.40;5.68;;;;;;;;;;5086301;28;20119;-79
2023/12/09 07:14:29;;;;;;;18.33;6.53;;;;;;;;;;5071556;28;20344;-79
2023/12/09 07:16:55;;;;;;;11.55;5.55;;;;;;;;;;5085965;28;20027;-80
2023/12/09 07:19:21;;;;;;;15.50;6.68;;;;;;;;;;5084611;28;20028;-78
2023/12/09 07:21:47;;;;;;;14.02;7.18;;;;;;;;;;5084005;28;20134;-78
2023/12/09 07:24:13;;;;;;;11.52;5.85;;;;;;;;;;5084794;28;20398;-79
2023/12/09 07:26:39;;;;;;;14.88;5.90;;;;;;;;;;5083408;28;20028;-79
2023/12/09 07:29:05;;;;;;;14.77;6.20;;;;;;;;;;5080449;28;20036;-79
2023/12/09 07:31:32;;;;;;;13.48;6.22;;;;;;;;;;5074270;28;20028;-80
2023/12/09 07:33:58;;;;;;;14.18;5.22;;;;;;;;;;5068369;28;20043;-79
2023/12/09 07:36:24;;;;;;;12.52;6.72;;;;;;;;;;5082088;28;20025;-79
2023/12/09 07:38:50;;;;;;;17.38;8.32;;;;;;;;;;5068574;28;20036;-79
2023/12/09 07:41:16;;;;;;;19.20;9.52;;;;;;;;;;5071541;28;20032;-79
2023/12/09 07:43:42;;;;;;;29.10;10.88;;;;;;;;;;5069241;28;20016;-78
2023/12/09 07:46:08;;;;;;;28.02;10.32;;;;;;;;;;5079099;28;20468;-78
2023/12/09 07:48:35;;;;;;;22.10;8.98;;;;;;;;;;5088606;28;20045;-78
2023/12/09 07:51:01;;;;;;;18.27;7.30;;;;;;;;;;5075807;28;20421;-78
2023/12/09 07:53:27;;;;;;;16.40;8.32;;;;;;;;;;5088151;28;20016;-79
2023/12/09 07:55:53;;;;;;;21.15;7.85;;;;;;;;;;5085397;28;20027;-78
2023/12/09 07:58:19;;;;;;;14.43;7.43;;;;;;;;;;5071852;28;20097;-78
2023/12/09 08:00:45;;;;;;;25.35;7.15;;;;;;;;;;5085447;28;20447;-79
2023/12/09 08:03:11;;;;;;;14.50;6.40;;;;;;;;;;5082482;28;20036;-79
2023/12/09 08:05:38;;;;;;;12.70;5.90;;;;;;;;;;5068329;28;20073;-79
2023/12/09 08:08:04;;;;;;;17.48;6.65;;;;;;;;;;5088430;28;20016;-80
2023/12/09 08:10:30;;;;;;;19.73;7.25;;;;;;;;;;5087936;28;20036;-79
2023/12/09 08:12:56;;;;;;;16.35;6.38;;;;;;;;;;5094688;28;20021;-78
2023/12/09 08:15:22;;;;;;;16.65;7.40;;;;;;;;;;5106012;28;20534;-79
2023/12/09 08:17:48;;;;;;;14.90;6.38;;;;;;;;;;5092095;28;20447;-79
2023/12/09 08:20:14;;;;;;;19.05;7.13;;;;;;;;;;5105727;28;20023;-79
2023/12/09 08:22:42;;;;;;;14.45;6.95;;;;;;;;;;5096191;28;20103;-78
2023/12/09 08:25:09;;;;;;;16.42;6.47;;;;;;;;;;5107701;28;20016;-78
2023/12/09 08:27:35;;;;;;;18.55;6.80;;;;;;;;;;5089608;28;20095;-78
2023/12/09 08:30:01;;;;;;;14.45;5.95;;;;;;;;;;5107284;28;20024;-79
2023/12/09 08:32:29;;;;;;;23.92;6.85;;;;;;;;;;5088370;28;20039;-79
2023/12/09 08:34:54;;;;;;;15.00;5.97;;;;;;;;;;5098873;28;20028;-78
2023/12/09 08:37:25;;;;;;;14.40;6.68;;;;;;;;;;5101785;28;22241;-79
2023/12/09 08:39:53;;;;;;;15.63;6.43;;;;;;;;;;5086942;28;20079;-79
2023/12/09 08:42:19;;;;;;;15.63;7.45;;;;;;;;;;5100156;28;20035;-79
2023/12/09 08:44:45;;;;;;;12.15;5.97;;;;;;;;;;5108614;28;20036;-79
2023/12/09 08:47:10;;;;;;;15.82;6.75;;;;;;;;;;5089171;28;20024;-79
2023/12/09 08:49:36;;;;;;;14.88;7.13;;;;;;;;;;5112739;28;20051;-78
2023/12/09 08:52:02;;;;;;;16.92;8.00;;;;;;;;;;5110532;28;20031;-79
2023/12/09 08:54:28;;;;;;;19.33;7.90;;;;;;;;;;5108054;28;20044;-78
2023/12/09 08:56:54;;;;;;;9.85;5.78;;;;;;;;;;5109277;28;20043;-77
2023/12/09 08:59:20;;;;;;;12.18;5.50;;;;;;;;;;5103928;28;20028;-77
2023/12/09 09:01:46;;;;;;;12.32;5.25;;;;;;;;;;5107336;28;20040;-77
2023/12/09 09:04:12;;;;;;;14.25;5.80;;;;;;;;;;5106956;28;20028;-78
2023/12/09 09:06:38;;;;;;;14.20;6.85;;;;;;;;;;5096007;28;20030;-79
2023/12/09 09:09:04;;;;;;;11.63;4.90;;;;;;;;;;5086547;28;20045;-79
2023/12/09 09:11:30;;;;;;;8.75;4.90;;;;;;;;;;5110907;28;20071;-79
2023/12/09 09:13:56;;;;;;;12.63;5.43;;;;;;;;;;5102813;28;20024;-79
2023/12/09 09:16:23;;;;;;;12.25;5.43;;;;;;;;;;5101717;28;20024;-78
2023/12/09 09:18:48;;;;;;;17.88;5.40;;;7.10;99.90;;;;;;5102193;28;20040;-78
2023/12/09 09:21:16;;;;;;;10.13;4.30;;;;;;;;;;5105030;28;20163;-78
2023/12/09 09:23:42;;;;;;;9.18;4.68;;;;;;;;;;5111901;28;20046;-78
2023/12/09 09:26:08;;;;;;;16.25;4.90;;;;;;;;;;5108407;28;20024;-78
2023/12/09 09:28:34;;;;;;;8.88;4.35;;;;;;;;;;5072337;28;20028;-79
2023/12/09 09:31:00;;;;;;;9.80;4.40;;;;;;;;;;5076822;28;20029;-78
2023/12/09 09:33:26;;;;;;;17.98;4.90;;;;;;;;;;5089297;28;20026;-79
2023/12/09 09:35:54;;;;;;;10.15;4.13;;;;;;;;;;5092042;28;20028;-78
2023/12/09 09:38:20;;;;;;;13.25;3.83;;;;;;;;;;5086943;28;20081;-79
2023/12/09 09:40:46;;;;;;;8.35;4.30;;;;;;;;;;5087314;28;20068;-80
2023/12/09 09:43:22;;;;;;;7.95;3.83;;;;;;;;;;5090273;28;20032;-78
2023/12/09 09:45:48;;;;;;;8.70;3.90;;;;;;;;;;5087720;28;20024;-81
2023/12/09 09:48:16;;;;;;;7.03;3.78;;;;;;;;;;5087029;28;20047;-79
2023/12/09 09:50:47;;;;;;;7.07;3.40;;;;;;;;;;5087477;28;20050;-79
2023/12/09 09:53:16;;;;;;;12.18;4.13;;;;;;;;;;5082702;28;20032;-80
2023/12/09 09:55:42;;;;;;;9.90;4.53;;;;;;;;;;5071101;28;20020;-82
2023/12/09 09:58:08;;;;;;;9.90;3.55;;;;;;;;;;5072548;28;20032;-82
2023/12/09 10:00:34;;;;;;;12.27;3.55;;;;;;;;;;5084479;28;20126;-80
2023/12/09 10:03:00;;;;;;;7.90;3.10;;;;;;;;;;5087263;28;20043;-81
2023/12/09 10:05:27;;;;;;;16.20;2.90;;;;;;;;;;5069789;28;20046;-80
2023/12/09 10:07:55;;;;;;;15.38;4.28;;;;;;;;;;5086931;28;20044;-80
2023/12/09 10:10:21;;;;;;;7.60;3.05;;;;;;;;;;5086158;28;20021;-81
2023/12/09 10:12:47;;;;;;;9.23;2.67;;;;;;;;;;5079014;28;20111;-81
2023/12/09 10:15:13;;;;;;;15.68;4.82;;;;;;;;;;5088777;28;20108;-81
2023/12/09 10:17:39;;;;;;;9.13;3.20;;;;;;;;;;5092922;28;20024;-82
2023/12/09 10:20:06;;;;;;;5.10;2.65;;;;;;;;;;5086916;28;20020;-80
2023/12/09 10:22:32;;;;;;;6.47;3.42;;;7.10;99.90;;;;;;5064697;28;20028;-81
2023/12/09 10:24:58;;;;;;;8.23;2.45;;;;;;;;;;5078415;28;20032;-81
2023/12/09 10:27:25;;;;;;;4.63;2.85;;;;;;;;;;5065563;28;20031;-82
2023/12/09 10:29:58;;;;;;;8.10;2.65;;;;;;;;;;5065389;28;20035;-82
2023/12/09 10:32:26;;;;;;;4.45;2.03;;;;;;;;;;5082412;28;20930;-81
2023/12/09 10:34:52;;;;;;;3.95;2.00;;;;;;;;;;5069000;28;20058;-81
2023/12/09 10:37:18;;;;;;;10.40;3.75;;;;;;;;;;5088010;28;20023;-81
2023/12/09 10:39:49;;;;;;;4.43;2.33;;;;;;;;;;5087281;28;20070;-81
2023/12/09 10:42:15;;;;;;;7.20;2.35;;;;;;;;;;5054580;28;20031;-78
2023/12/09 10:44:42;;;;;;;7.93;2.30;;;;;;;;;;5095369;28;20275;-80
2023/12/09 10:47:08;;;;;;;11.70;2.60;;;;;;;;;;5095937;28;20533;-82
2023/12/09 10:49:34;;;;;;;4.72;1.60;;;;;;;;;;5071677;28;20512;-80
2023/12/09 10:52:00;;;;;;;5.35;1.55;;;;;;;;;;5071818;28;20040;-80
2023/12/09 10:54:26;;;;;;;5.78;1.85;;;;;;;;;;5087725;28;20066;-81
2023/12/09 10:56:52;;;;;;;3.60;1.77;;;;;;;;;;5090660;28;20079;-82
2023/12/09 10:59:18;;;;;;;3.70;1.50;;;;;;;;;;5073602;28;20035;-82
2023/12/09 11:01:46;;;;;;;8.07;1.80;;;;;;;;;;5091296;28;20131;-81
2023/12/09 11:04:15;;;;;;;7.63;1.70;;;;;;;;;;5084754;28;20024;-81
2023/12/09 11:06:42;;;;;;;4.95;1.77;;;;;;;;;;5088281;28;20390;-81
2023/12/09 11:09:09;;;;;;;4.07;2.22;;;;;;;;;;5073650;28;20282;-81
2023/12/09 11:11:35;;;;;;;4.65;1.88;;;;;;;;;;5068236;28;20085;-81
2023/12/09 11:14:01;;;;;;;6.32;1.80;;;;;;;;;;5071944;28;20059;-80
2023/12/09 11:16:28;;;;;;;4.68;1.67;;;;;;;;;;5090825;28;20028;-81
2023/12/09 11:18:55;;;;;;;9.05;2.05;;;;;;;;;;5073509;28;20471;-80
2023/12/09 11:21:23;;;;;;;3.08;1.38;;;;;;;;;;5067385;28;20024;-81
2023/12/09 11:23:50;;;;;;;6.30;1.25;;;8.60;99.90;;;;;;5068976;28;20051;-81
2023/12/09 11:26:19;;;;;;;9.57;1.63;;;;;;;;;;5070046;28;20062;-80
2023/12/09 11:29:08;;;;;;;2.08;0.82;;;9.00;99.90;;;;;;5087859;28;20077;-80
2023/12/09 11:31:41;;;;;;;4.05;1.40;;;;;;;;;;5084342;28;20032;-83
2023/12/09 11:34:08;;;;;;;3.67;1.13;;;;;;;;;;5066397;28;20115;-81
2023/12/09 11:36:38;;;;;;;4.60;1.10;;;;;;;;;;5081324;28;20023;-80
2023/12/09 11:39:06;;;;;;;4.78;1.80;;;;;;;;;;5075324;28;20121;-80
2023/12/09 11:41:42;;;;;;;5.80;1.55;;;9.30;99.90;;;;;;5081744;28;20032;-80
2023/12/09 11:44:09;;;;;;;3.33;1.05;;;;;;;;;;5071482;28;20039;-80
2023/12/09 11:46:36;;;;;;;1.98;0.85;;;;;;;;;;5084068;28;20031;-80
2023/12/09 11:49:02;;;;;;;4.45;1.30;;;;;;;;;;5085906;28;20028;-80
2023/12/09 11:51:29;;;;;;;4.20;1.00;;;;;;;;;;5072060;28;20024;-81
2023/12/09 11:53:55;;;;;;;3.40;1.70;;;;;;;;;;5085690;28;20017;-79
2023/12/09 11:56:21;;;;;;;5.57;0.68;;;;;;;;;;5072128;28;20374;-80
2023/12/09 11:58:47;;;;;;;2.28;0.82;;;;;;;;;;5064211;28;20039;-80
2023/12/09 12:01:13;;;;;;;2.78;0.93;;;;;;;;;;5082625;28;20560;-81
2023/12/09 12:03:39;;;;;;;8.27;0.85;;;;;;;;;;5093689;28;20024;-80
2023/12/09 12:06:05;;;;;;;3.53;1.17;;;;;;;;;;5084356;28;20051;-80
2023/12/09 12:08:31;;;;;;;3.58;0.90;;;;;;;;;;5090529;28;20180;-80
2023/12/09 12:10:57;;;;;;;1.83;0.80;;;;;;;;;;5075433;28;20024;-80
2023/12/09 12:13:23;;;;;;;1.02;0.55;;;;;;;;;;5086743;28;20509;-79
2023/12/09 12:15:52;;;;;;;13.10;1.10;;;;;;;;;;5072021;28;20096;-79
2023/12/09 12:18:18;;;;;;;2.47;0.90;;;;;;;;;;5079291;28;20077;-79
2023/12/09 12:20:45;;;;;;;3.83;2.42;;;;;;;;;;5088959;28;20040;-80
2023/12/09 12:23:11;;;;;;;1.63;0.65;;;;;;;;;;5091096;28;20089;-79
2023/12/09 12:25:38;;;;;;;2.97;1.35;;;;;;;;;;5088978;28;20024;-80
2023/12/09 12:28:04;;;;;;;1.65;0.77;;;;;;;;;;5089099;28;20036;-78
2023/12/09 12:30:31;;;;;;;2.42;1.13;;;8.40;99.90;;;;;;5087135;28;20020;-79
2023/12/09 12:32:56;;;;;;;2.80;0.77;;;8.60;99.90;;;;;;5085225;28;20048;-79
2023/12/09 12:35:23;;;;;;;8.88;1.33;;;;;;;;;;5091754;28;20039;-80
2023/12/09 12:37:49;;;;;;;1.98;0.98;;;;;;;;;;5074779;28;20035;-80
2023/12/09 12:40:15;;;;;;;2.40;1.20;;;;;;;;;;5089732;28;20039;-80
2023/12/09 12:42:42;;;;;;;1.88;0.52;;;;;;;;;;5089834;28;20032;-79
2023/12/09 12:45:18;;;;;;;8.63;1.02;;;;;;;;;;5069675;28;20025;-80
2023/12/09 12:47:45;;;;;;;4.45;1.17;;;8.10;99.90;;;;;;5091352;28;20032;-80
2023/12/09 12:50:11;;;;;;;5.22;1.10;;;;;;;;;;5088789;28;20386;-80
2023/12/09 12:52:37;;;;;;;4.28;1.15;;;;;;;;;;5089378;28;20024;-80
2023/12/09 12:55:03;;;;;;;3.20;1.23;;;;;;;;;;5088923;28;20024;-78
2023/12/09 12:57:29;;;;;;;2.97;1.10;;;;;;;;;;5089515;28;20421;-80
2023/12/09 12:59:56;;;;;;;7.80;1.50;;;;;;;;;;5087518;28;20791;-80
2023/12/09 13:02:22;;;;;;;3.70;1.33;;;;;;;;;;5070832;28;20023;-80
2023/12/09 13:04:51;;;;;;;3.15;0.98;;;;;;;;;;5085875;28;20024;-80
2023/12/09 13:07:18;;;;;;;2.30;1.27;;;;;;;;;;5088055;28;20154;-80
2023/12/09 13:09:44;;;;;;;2.30;1.02;;;;;;;;;;5092697;28;20049;-78
2023/12/09 13:12:10;;;;;;;5.32;1.17;;;;;;;;;;5095417;28;20023;-79
2023/12/09 13:14:36;;;;;;;5.72;1.40;;;;;;;;;;5072630;28;20051;-79
2023/12/09 13:17:04;;;;;;;3.00;1.10;;;;;;;;;;5074260;28;20489;-79
2023/12/09 13:19:30;;;;;;;2.17;1.00;;;;;;;;;;5087477;28;20043;-78
2023/12/09 13:21:56;;;;;;;3.70;1.20;;;;;;;;;;5077200;28;20023;-80
2023/12/09 13:24:22;;;;;;;2.20;1.25;;;;;;;;;;5085565;28;20358;-80
2023/12/09 13:26:49;;;;;;;1.92;0.90;;;;;;;;;;5091635;28;20123;-80
2023/12/09 13:29:15;;;;;;;4.60;0.93;;;;;;;;;;5067465;28;20161;-80
2023/12/09 13:31:40;;;;;;;1.75;1.15;;;;;;;;;;5089717;28;20024;-81
2023/12/09 13:34:06;;;;;;;2.53;1.38;;;;;;;;;;5076537;28;20023;-79
2023/12/09 13:36:33;;;;;;;2.80;1.23;;;;;;;;;;5084331;28;20494;-80
2023/12/09 13:38:59;;;;;;;2.15;0.90;;;;;;;;;;5070549;28;20059;-79
2023/12/09 13:41:26;;;;;;;1.77;0.77;;;;;;;;;;5071883;28;20070;-79
2023/12/09 13:43:51;;;;;;;3.10;1.02;;;;;;;;;;5075557;28;20024;-79
2023/12/09 13:46:17;;;;;;;1.75;0.80;;;;;;;;;;5073126;28;20145;-80
2023/12/09 13:48:44;;;;;;;1.88;0.77;;;;;;;;;;5092418;28;20039;-79
2023/12/09 13:51:10;;;;;;;1.75;0.88;;;;;;;;;;5087895;28;20478;-79
2023/12/09 13:53:36;;;;;;;1.65;0.80;;;;;;;;;;5089860;28;20390;-79
2023/12/09 13:56:03;;;;;;;2.03;1.00;;;;;;;;;;5072084;28;20040;-79
2023/12/09 13:58:29;;;;;;;1.55;0.80;;;;;;;;;;5094188;28;20437;-78
2023/12/09 14:00:57;;;;;;;4.05;2.28;;;;;;;;;;5068641;28;20494;-79
2023/12/09 14:03:23;;;;;;;5.55;2.13;;;;;;;;;;5069833;28;20043;-80
2023/12/09 14:05:49;;;;;;;2.08;1.25;;;;;;;;;;5087701;28;20156;-79
2023/12/09 14:08:16;;;;;;;1.60;0.90;;;;;;;;;;5076147;28;20238;-79
2023/12/09 14:10:43;;;;;;;5.10;2.38;;;;;;;;;;5092188;28;20028;-79
2023/12/09 14:13:09;;;;;;;4.95;2.15;;;;;;;;;;5071280;28;20033;-79
2023/12/09 14:15:36;;;;;;;2.38;0.95;;;;;;;;;;5074148;28;20081;-80
2023/12/09 14:18:02;;;;;;;1.33;0.70;;;8.20;99.90;;;;;;5077005;28;20028;-80
2023/12/09 14:20:28;;;;;;;2.70;1.15;;;;;;;;;;5086252;28;20486;-79
2023/12/09 14:22:54;;;;;;;4.40;1.95;;;;;;;;;;5092356;28;20123;-79
2023/12/09 14:25:20;;;;;;;4.20;0.80;;;;;;;;;;5076257;28;20028;-79
2023/12/09 14:27:46;;;;;;;1.38;0.70;;;;;;;;;;5088447;28;20036;-79
2023/12/09 14:30:12;;;;;;;2.30;0.95;;;7.40;99.90;;;;;;5089255;28;20028;-79